Time;durP1;ratioP1;P1;durP2;ratioP2;P2;SDS_P1;SDS_P2;PMS_P1;PMS_P2;Temp;Humidity;BMP_temperature;BMP_pressure;BME280_temperature;BME280_humidity;BME280_pressure;Samples;Min_cycle;Max_cycle;Signal;HPM_P1;HPM_P2
2022/11/15 00:01:17;;;;;;;0.00;0.00;;;;;;;;;;5076646;28;20293;-78
2022/11/15 00:03:46;;;;;;;0.00;0.00;;;;;;;;;;5076653;28;20198;-78
2022/11/15 00:06:15;;;;;;;0.00;0.00;;;;;;;;;;5076082;28;20643;-78
2022/11/15 00:08:43;;;;;;;0.00;0.00;;;;;;;;;;5083583;28;20310;-78
2022/11/15 00:11:13;;;;;;;0.00;0.00;;;;;;;;;;5079087;28;20249;-77
2022/11/15 00:13:42;;;;;;;0.00;0.00;;;;;;;;;;5081410;28;20221;-78
2022/11/15 00:16:11;;;;;;;0.00;0.00;;;;;;;;;;5095949;28;20213;-78
2022/11/15 00:18:40;;;;;;;0.00;0.00;;;;;;;;;;5091865;28;20561;-78
2022/11/15 00:21:15;;;;;;;0.00;0.00;;;;;;;;;;5076670;28;20561;-78
2022/11/15 00:23:44;;;;;;;0.00;0.00;;;;;;;;;;5076293;28;20258;-77
2022/11/15 00:26:15;;;;;;;0.00;0.00;;;;;;;;;;5076004;28;20198;-78
2022/11/15 00:28:43;;;;;;;0.00;0.00;;;;;;;;;;5079515;28;20259;-78
2022/11/15 00:31:14;;;;;;;0.00;0.00;;;;;;;;;;5088956;28;20256;-78
2022/11/15 00:33:44;;;;;;;0.00;0.00;;;;;;;;;;5076029;28;20242;-78
2022/11/15 00:36:13;;;;;;;0.00;0.00;;;;;;;;;;5083408;28;20301;-78
2022/11/15 00:38:42;;;;;;;0.00;0.00;;;;;;;;;;5078683;28;21224;-78
2022/11/15 00:41:10;;;;;;;0.00;0.00;;;;;;;;;;5087283;28;20255;-78
2022/11/15 00:43:43;;;;;;;0.00;0.00;;;;;;;;;;5095937;28;20298;-78
2022/11/15 00:46:11;;;;;;;0.00;0.00;;;;;;;;;;5085093;28;20203;-78
2022/11/15 00:48:40;;;;;;;0.00;0.00;;;;;;;;;;5085020;28;20229;-78
2022/11/15 00:51:08;;;;;;;0.00;0.00;;;;;;;;;;5076770;28;20206;-77
2022/11/15 00:53:37;;;;;;;0.00;0.00;;;;;;;;;;5077025;28;20230;-78
2022/11/15 00:56:05;;;;;;;0.00;0.00;;;;;;;;;;5085838;28;20214;-78
2022/11/15 00:58:34;;;;;;;0.00;0.00;;;;;;;;;;5075800;28;20198;-78
2022/11/15 01:01:10;;;;;;;0.00;0.00;;;;;;;;;;5090340;28;20615;-78
2022/11/15 01:03:40;;;;;;;0.00;0.00;;;;;;;;;;5083677;28;20312;-77
2022/11/15 01:06:09;;;;;;;0.00;0.00;;;;;;;;;;5077188;28;20245;-78
2022/11/15 01:08:37;;;;;;;0.00;0.00;;;;;;;;;;5083856;28;20213;-78
2022/11/15 01:11:07;;;;;;;0.00;0.00;;;;;;;;;;5077046;28;20246;-78
2022/11/15 01:13:37;;;;;;;0.00;0.00;;;;;;;;;;5075138;28;20258;-78
2022/11/15 01:16:11;;;;;;;0.00;0.00;;;;;;;;;;5080611;28;20716;-78
2022/11/15 01:18:39;;;;;;;0.00;0.00;;;;;;;;;;5092017;28;20211;-78
2022/11/15 01:21:09;;;;;;;0.00;0.00;;;;;;;;;;5094986;28;20197;-78
2022/11/15 01:23:38;;;;;;;0.00;0.00;;;;;;;;;;5085839;28;20250;-78
2022/11/15 01:26:08;;;;;;;0.00;0.00;;;;;;;;;;5074064;28;20203;-78
2022/11/15 01:28:38;;;;;;;0.00;0.00;;;;;;;;;;5074079;28;20272;-78
2022/11/15 01:31:07;;;;;;;0.00;0.00;;;;;;;;;;5074647;28;20638;-78
2022/11/15 01:33:37;;;;;;;0.00;0.00;;;;;;;;;;5074351;28;20223;-78
2022/11/15 01:36:06;;;;;;;0.00;0.00;;;;;;;;;;5074108;28;20234;-78
2022/11/15 01:38:35;;;;;;;0.00;0.00;;;;;;;;;;5074151;28;20310;-77
2022/11/15 01:41:03;;;;;;;0.00;0.00;;;;;;;;;;5074395;28;20210;-78
2022/11/15 01:43:33;;;;;;;0.00;0.00;;;;;;;;;;5074575;28;20222;-78
2022/11/15 01:46:03;;;;;;;0.00;0.00;;;;;;;;;;5073811;28;20237;-78
2022/11/15 01:48:34;;;;;;;0.00;0.00;;;;;;;;;;5074185;28;20660;-78
2022/11/15 01:51:06;;;;;;;0.00;0.00;;;;;;;;;;5074645;28;20242;-78
2022/11/15 01:53:35;;;;;;;0.00;0.00;;;;;;;;;;5075564;28;20222;-78
2022/11/15 01:56:05;;;;;;;0.00;0.00;;;;;;;;;;5089180;28;20216;-78
2022/11/15 01:58:34;;;;;;;0.00;0.00;;;;;;;;;;5079884;28;20252;-78
2022/11/15 02:01:02;;;;;;;0.00;0.00;;;;;;;;;;5074297;28;20260;-78
2022/11/15 02:03:36;;;;;;;0.00;0.00;;;;;;;;;;5073872;28;20222;-78
2022/11/15 02:06:07;;;;;;;0.00;0.00;;;;;;;;;;5085842;28;20240;-78
2022/11/15 02:08:35;;;;;;;0.00;0.00;;;;;;;;;;5091466;28;20217;-78
2022/11/15 02:11:06;;;;;;;0.00;0.00;;;;;;;;;;5082886;28;20682;-78
2022/11/15 02:13:34;;;;;;;0.00;0.00;;;;;;;;;;5074426;28;20222;-78
2022/11/15 02:16:09;;;;;;;0.00;0.00;;;;;;;;;;5073374;28;20214;-77
2022/11/15 02:18:40;;;;;;;0.00;0.00;;;;;;;;;;5074621;28;20210;-78
2022/11/15 02:21:14;;;;;;;0.00;0.00;;;;;;;;;;5074545;28;20252;-78
2022/11/15 02:24:03;;;;;;;0.00;0.00;;;;;;;;;;5076919;28;20254;-77
2022/11/15 02:26:48;;;;;;;0.00;0.00;;;;;;;;;;5065217;28;20635;-78
2022/11/15 02:29:19;;;;;;;0.00;0.00;;;;;;;;;;5073621;28;20276;-78
2022/11/15 02:31:53;;;;;;;0.00;0.00;;;;;;;;;;5091362;28;20249;-78
2022/11/15 02:34:25;;;;;;;0.00;0.00;;;;;;;;;;5088932;28;20230;-78
2022/11/15 02:37:00;;;;;;;0.00;0.00;;;;;;;;;;5079817;28;20206;-78
2022/11/15 02:39:33;;;;;;;0.00;0.00;;;;;;;;;;5074283;28;20232;-78
2022/11/15 02:42:03;;;;;;;0.00;0.00;;;;;;;;;;5073305;28;20218;-79
2022/11/15 02:44:34;;;;;;;0.00;0.00;;;;;;;;;;5073987;28;20222;-79
2022/11/15 02:47:14;;;;;;;0.00;0.00;;;;;;;;;;5080826;28;20244;-77
2022/11/15 02:49:44;;;;;;;0.00;0.00;;;;;;;;;;5092945;28;20260;-77
2022/11/15 02:52:16;;;;;;;0.00;0.00;;;;;;;;;;5073767;28;20222;-78
2022/11/15 02:54:54;;;;;;;0.00;0.00;;;;;;;;;;5084409;28;20234;-76
2022/11/15 02:57:31;;;;;;;0.00;0.00;;;;;;;;;;5084084;28;20223;-78
2022/11/15 03:00:09;;;;;;;0.00;0.00;;;;;;;;;;5090998;28;22105;-78
2022/11/15 03:02:44;;;;;;;0.00;0.00;;;;;;;;;;5073987;28;20226;-78
2022/11/15 03:05:19;;;;;;;0.00;0.00;;;;;;;;;;5073885;28;20210;-77
2022/11/15 03:07:52;;;;;;;0.00;0.00;;;;;;;;;;5076905;28;20210;-78
2022/11/15 03:10:28;;;;;;;0.00;0.00;;;;;;;;;;5073739;28;20207;-78
2022/11/15 03:12:58;;;;;;;0.00;0.00;;;;;;;;;;5073984;28;20214;-78
2022/11/15 03:15:30;;;;;;;0.00;0.00;;;;;;;;;;5073674;28;20283;-78
2022/11/15 03:18:02;;;;;;;0.00;0.00;;;;;;;;;;5073731;28;20183;-78
2022/11/15 03:20:32;;;;;;;0.00;0.00;;;;;;;;;;5073463;28;20201;-77
2022/11/15 03:23:02;;;;;;;0.00;0.00;;;;;;;;;;5081413;28;20753;-78
2022/11/15 03:25:33;;;;;;;0.00;0.00;;;;;;;;;;5087759;28;20293;-79
2022/11/15 03:28:02;;;;;;;0.00;0.00;;;;;;;;;;5077284;28;21023;-79
2022/11/15 03:30:32;;;;;;;0.00;0.00;;;;;;;;;;5085725;28;20313;-79
2022/11/15 03:33:03;;;;;;;0.00;0.00;;;;;;;;;;5097387;28;20660;-78
2022/11/15 03:35:35;;;;;;;0.00;0.00;;;;;;;;;;5087810;28;20206;-78
2022/11/15 03:38:06;;;;;;;0.00;0.00;;;;;;;;;;5081468;28;20623;-78
2022/11/15 03:40:38;;;;;;;0.00;0.00;;;;;;;;;;5076976;28;20244;-78
2022/11/15 03:43:11;;;;;;;0.00;0.00;;;;;;;;;;5097596;28;20672;-78
2022/11/15 03:45:42;;;;;;;0.00;0.00;;;;;;;;;;5096918;28;20240;-78
2022/11/15 03:48:14;;;;;;;0.00;0.00;;;;;;;;;;5097119;28;20233;-79
2022/11/15 03:50:43;;;;;;;0.00;0.00;;;;;;;;;;5086318;28;20242;-78
2022/11/15 03:53:12;;;;;;;0.00;0.00;;;;;;;;;;5076706;28;20265;-78
2022/11/15 03:55:40;;;;;;;0.00;0.00;;;;;;;;;;5092562;28;20239;-77
2022/11/15 03:58:09;;;;;;;0.00;0.00;;;;;;;;;;5091197;28;20237;-77
2022/11/15 04:00:37;;;;;;;0.00;0.00;;;;;;;;;;5096309;28;20241;-78
2022/11/15 04:03:07;;;;;;;0.00;0.00;;;;;;;;;;5097030;28;20222;-78
2022/11/15 04:05:37;;;;;;;0.00;0.00;;;;;;;;;;5087010;28;20222;-77
2022/11/15 04:08:05;;;;;;;0.00;0.00;;;;;;;;;;5076361;28;20198;-78
2022/11/15 04:10:33;;;;;;;0.00;0.00;;;;;;;;;;5082548;28;20306;-78
2022/11/15 04:13:03;;;;;;;0.00;0.00;;;;;;;;;;5076269;28;20265;-78
2022/11/15 04:15:32;;;;;;;0.00;0.00;;;;;;;;;;5076073;28;20301;-78
2022/11/15 04:18:00;;;;;;;0.00;0.00;;;;;;;;;;5075630;28;20256;-78
2022/11/15 04:26:04;;;;;;;0.00;0.00;;;;;;;;;;5075889;28;20287;-77
2022/11/15 04:28:33;;;;;;;0.00;0.00;;;;;;;;;;5076197;28;20599;-77
2022/11/15 04:31:01;;;;;;;0.00;0.00;;;;;;;;;;5075805;28;20269;-77
2022/11/15 04:33:30;;;;;;;0.00;0.00;;;;;;;;;;5075562;28;20664;-77
2022/11/15 04:38:46;;;;;;;0.00;0.00;;;;;;;;;;5075795;28;20586;-77
2022/11/15 04:41:14;;;;;;;0.00;0.00;;;;;;;;;;5084730;28;20198;-77
2022/11/15 04:43:43;;;;;;;0.00;0.00;;;;;;;;;;5095703;28;20245;-77
2022/11/15 04:46:11;;;;;;;0.00;0.00;;;;;;;;;;5088497;28;20246;-77
2022/11/15 04:48:40;;;;;;;0.00;0.00;;;;;;;;;;5075896;28;20720;-76
2022/11/15 04:51:08;;;;;;;0.00;0.00;;;;;;;;;;5075090;28;20219;-76
2022/11/15 04:53:37;;;;;;;0.00;0.00;;;;;;;;;;5077106;28;20279;-76
2022/11/15 04:56:07;;;;;;;0.00;0.00;;;;;;;;;;5083140;28;20210;-76
2022/11/15 04:58:36;;;;;;;0.00;0.00;;;;;;;;;;5075662;28;20203;-76
2022/11/15 05:01:08;;;;;;;0.00;0.00;;;;;;;;;;5075932;28;20245;-76
2022/11/15 05:06:23;;;;;;;0.00;0.00;;;;;;;;;;5085541;28;20194;-76
2022/11/15 05:08:51;;;;;;;0.00;0.00;;;;;;;;;;5075455;28;20675;-76
2022/11/15 05:11:21;;;;;;;0.00;0.00;;;;;;;;;;5075169;28;20755;-76
2022/11/15 05:13:50;;;;;;;0.00;0.00;;;;;;;;;;5075157;28;20290;-76
2022/11/15 05:16:19;;;;;;;0.00;0.00;;;;;;;;;;5074553;28;20644;-76
2022/11/15 05:18:47;;;;;;;0.00;0.00;;;;;;;;;;5075101;28;20281;-76
2022/11/15 05:21:16;;;;;;;0.00;0.00;;;;;;;;;;5076906;28;20199;-76
2022/11/15 05:23:45;;;;;;;0.00;0.00;;;;;;;;;;5079206;28;20225;-77
2022/11/15 05:26:13;;;;;;;0.00;0.00;;;;;;;;;;5086207;28;20269;-76
2022/11/15 05:28:43;;;;;;;0.00;0.00;;;;;;;;;;5093988;28;20206;-76
2022/11/15 05:31:13;;;;;;;0.00;0.00;;;;;;;;;;5074589;28;20258;-76
2022/11/15 05:33:42;;;;;;;0.00;0.00;;;;;;;;;;5074985;28;20257;-76
2022/11/15 05:36:13;;;;;;;0.00;0.00;;;;;;;;;;5073510;28;20206;-77
2022/11/15 05:38:42;;;;;;;0.00;0.00;;;;;;;;;;5073968;28;20377;-76
2022/11/15 05:41:11;;;;;;;0.00;0.00;;;;;;;;;;5074400;28;20206;-76
2022/11/15 05:43:40;;;;;;;0.00;0.00;;;;;;;;;;5073683;28;20230;-77
2022/11/15 05:46:10;;;;;;;0.00;0.00;;;;;;;;;;5073560;28;20203;-77
2022/11/15 05:48:39;;;;;;;0.00;0.00;;;;;;;;;;5074260;28;20699;-77
2022/11/15 05:51:08;;;;;;;0.00;0.00;;;;;;;;;;5074259;28;20227;-77
2022/11/15 05:53:38;;;;;;;0.00;0.00;;;;;;;;;;5074459;28;20276;-76
2022/11/15 05:56:07;;;;;;;0.00;0.00;;;;;;;;;;5081041;28;20198;-77
2022/11/15 05:58:36;;;;;;;0.00;0.00;;;;;;;;;;5093623;28;20201;-77
2022/11/15 06:01:04;;;;;;;0.00;0.00;;;;;;;;;;5073602;28;20620;-76
2022/11/15 06:03:34;;;;;;;0.00;0.00;;;;;;;;;;5073234;28;20250;-77
2022/11/15 06:06:02;;;;;;;0.00;0.00;;;;;;;;;;5073811;28;20233;-76
2022/11/15 06:08:31;;;;;;;10.40;7.93;;;;;;;;;;5072957;28;20289;-77
2022/11/15 06:11:04;;;;;;;9.87;7.53;;;;;;;;;;5073132;28;20256;-76
2022/11/15 06:13:33;;;;;;;10.13;7.73;;;;;;;;;;5073415;28;20309;-75
2022/11/15 06:16:02;;;;;;;10.47;7.80;;;;;;;;;;5090180;28;20239;-76
2022/11/15 06:18:33;;;;;;;10.93;8.43;;;;;;;;;;5085066;28;20226;-75
2022/11/15 06:21:03;;;;;;;8.27;7.47;;;;;;;;;;5078520;28;20191;-75
2022/11/15 06:23:33;;;;;;;9.13;7.93;;;;;;;;;;5074169;28;20250;-75
2022/11/15 06:26:02;;;;;;;11.67;9.40;;;;;;;;;;5094166;28;20208;-75
2022/11/15 06:28:31;;;;;;;5.43;4.63;;;;;;;;;;5093368;28;20205;-75
2022/11/15 06:31:03;;;;;;;0.00;0.00;;;;;;;;;;5094317;28;20713;-75
2022/11/15 06:33:32;;;;;;;0.00;0.00;;;;;;;;;;5082362;28;20702;-75
2022/11/15 06:36:03;;;;;;;0.00;0.00;;;;;;;;;;5073761;28;20251;-75
2022/11/15 06:38:32;;;;;;;0.00;0.00;;;;;;;;;;5074246;28;20179;-75
2022/11/15 06:41:03;;;;;;;0.00;0.00;;;;;;;;;;5074119;28;20210;-75
2022/11/15 06:43:31;;;;;;;0.00;0.00;;;;;;;;;;5073792;28;20258;-75
2022/11/15 06:46:00;;;;;;;0.00;0.00;;;;;;;;;;5079541;28;20658;-75
2022/11/15 06:48:29;;;;;;;0.00;0.00;;;;;;;;;;5084463;28;20210;-75
2022/11/15 06:50:58;;;;;;;0.00;0.00;;;;;;;;;;5073898;28;20572;-75
2022/11/15 06:53:29;;;;;;;0.00;0.00;;;;;;;;;;5092624;28;20283;-75
2022/11/15 06:56:00;;;;;;;0.00;0.00;;;;;;;;;;5074500;28;20596;-75
2022/11/15 06:58:28;;;;;;;0.00;0.00;;;;;;;;;;5077122;28;20244;-75
2022/11/15 07:01:00;;;;;;;0.00;0.00;;;;;;;;;;5078396;28;20686;-75
2022/11/15 07:03:28;;;;;;;0.00;0.00;;;;;;;;;;5077965;28;20691;-75
2022/11/15 07:05:58;;;;;;;0.00;0.00;;;;;;;;;;5077399;28;20240;-75
2022/11/15 07:08:36;;;;;;;0.00;0.00;;;;;;;;;;5077803;28;20186;-75
2022/11/15 07:11:05;;;;;;;0.00;0.00;;;;;;;;;;5077538;28;20245;-75
2022/11/15 07:13:33;;;;;;;0.00;0.00;;;;;;;;;;5077868;28;20291;-75
2022/11/15 07:16:03;;;;;;;0.00;0.00;;;;;;;;;;5077469;28;20671;-75
2022/11/15 07:18:32;;;;;;;0.00;0.00;;;;;;;;;;5077156;28;20214;-75
2022/11/15 07:21:02;;;;;;;0.00;0.00;;;;;;;;;;5077652;28;20601;-76
2022/11/15 07:23:30;;;;;;;0.00;0.00;;;;;;;;;;5078610;28;20227;-75
2022/11/15 07:26:01;;;;;;;0.00;0.00;;;;;;;;;;5097678;28;20205;-75
2022/11/15 07:28:30;;;;;;;0.00;0.00;;;;;;;;;;5097939;28;20631;-75
2022/11/15 07:30:58;;;;;;;0.00;0.00;;;;;;;;;;5097603;28;20665;-75
2022/11/15 07:33:27;;;;;;;0.00;0.00;;;;;;;;;;5096991;28;20257;-75
2022/11/15 07:36:01;;;;;;;0.00;0.00;;;;;;;;;;5097287;28;20209;-75
2022/11/15 07:38:29;;;;;;;0.00;0.00;;;;;;;;;;5097898;28;20187;-75
2022/11/15 07:40:59;;;;;;;0.00;0.00;;;;;;;;;;5097666;28;20209;-75
2022/11/15 07:43:29;;;;;;;0.00;0.00;;;;;;;;;;5097830;28;20299;-75
2022/11/15 07:45:58;;;;;;;0.00;0.00;;;;;;;;;;5096937;28;20553;-75
2022/11/15 07:48:27;;;;;;;0.00;0.00;;;;;;;;;;5097520;28;20193;-75
2022/11/15 07:51:13;;;;;;;0.00;0.00;;;;;;;;;;5097244;28;20190;-75
2022/11/15 07:53:42;;;;;;;0.00;0.00;;;;;;;;;;5097184;28;20654;-75
2022/11/15 07:56:10;;;;;;;0.00;0.00;;;;;;;;;;5096750;28;20248;-75
2022/11/15 07:58:40;;;;;;;0.00;0.00;;;;;;;;;;5096920;28;20287;-75
2022/11/15 08:01:10;;;;;;;0.00;0.00;;;;;;;;;;5097368;28;20205;-75
2022/11/15 08:03:38;;;;;;;0.00;0.00;;;;;;;;;;5096795;28;20236;-76
2022/11/15 08:06:07;;;;;;;0.00;0.00;;;;;;;;;;5097031;28;20233;-75
2022/11/15 08:08:35;;;;;;;0.00;0.00;;;;;;;;;;5096264;28;20678;-75
2022/11/15 08:11:04;;;;;;;0.00;0.00;;;;;;;;;;5096389;28;20205;-75
2022/11/15 08:13:32;;;;;;;0.00;0.00;;;;;;;;;;5096641;28;20265;-75
2022/11/15 08:16:05;;;;;;;0.00;0.00;;;;;;;;;;5096308;28;20201;-75
2022/11/15 08:18:33;;;;;;;0.00;0.00;;;;;;;;;;5096461;28;20186;-75
2022/11/15 08:21:02;;;;;;;0.00;0.00;;;;;;;;;;5096340;28;20732;-75
2022/11/15 08:23:31;;;;;;;0.00;0.00;;;;;;;;;;5077072;28;20253;-75
2022/11/15 08:26:02;;;;;;;0.00;0.00;;;;;;;;;;5096156;28;20201;-75
2022/11/15 08:28:30;;;;;;;0.00;0.00;;;;;;;;;;5096164;28;20205;-75
2022/11/15 08:30:59;;;;;;;0.00;0.00;;;;;;;;;;5096238;28;20291;-75
2022/11/15 08:33:29;;;;;;;0.00;0.00;;;;;;;;;;5096453;28;20271;-75
2022/11/15 08:35:58;;;;;;;0.00;0.00;;;;;;;;;;5096191;28;20631;-75
2022/11/15 08:38:28;;;;;;;0.00;0.00;;;;;;;;;;5096053;28;20248;-75
2022/11/15 08:41:01;;;;;;;0.00;0.00;;;;;;;;;;5096715;28;20639;-75
2022/11/15 08:43:30;;;;;;;0.00;0.00;;;;;;;;;;5096925;28;20613;-75
2022/11/15 08:45:59;;;;;;;0.00;0.00;;;;;;;;;;5096184;28;20205;-76
2022/11/15 08:48:29;;;;;;;0.00;0.00;;;;;;;;;;5096546;28;20251;-78
2022/11/15 08:50:58;;;;;;;0.00;0.00;;;;;;;;;;5097476;28;20542;-77
2022/11/15 08:53:27;;;;;;;0.00;0.00;;;;;;;;;;5097166;28;20279;-78
2022/11/15 08:55:55;;;;;;;0.00;0.00;;;;;;;;;;5096934;28;20247;-77
2022/11/15 08:58:24;;;;;;;0.00;0.00;;;;;;;;;;5097164;28;20236;-78
2022/11/15 09:00:52;;;;;;;0.00;0.00;;;;;;;;;;5097107;28;20253;-78
2022/11/15 09:03:21;;;;;;;0.00;0.00;;;;;;;;;;5096856;28;20272;-77
2022/11/15 09:05:55;;;;;;;0.00;0.00;;;;;;;;;;5096685;28;20202;-78
2022/11/15 09:08:24;;;;;;;0.00;0.00;;;;;;;;;;5096966;28;20646;-77
2022/11/15 09:11:12;;;;;;;0.00;0.00;;;;;;;;;;5096035;28;20208;-77
2022/11/15 09:13:41;;;;;;;0.00;0.00;;;;;;;;;;5096215;28;20268;-77
2022/11/15 09:16:11;;;;;;;0.00;0.00;;;;;;;;;;5096297;28;20675;-78
2022/11/15 09:18:40;;;;;;;0.00;0.00;;;;;;;;;;5096563;28;20190;-77
2022/11/15 09:21:10;;;;;;;0.00;0.00;;;;;;;;;;5096521;28;20557;-78
2022/11/15 09:23:39;;;;;;;0.00;0.00;;;;;;;;;;5096172;28;20245;-77
2022/11/15 09:26:08;;;;;;;0.00;0.00;;;;;;;;;;5096460;28;20251;-76
2022/11/15 09:28:37;;;;;;;0.00;0.00;;;;;;;;;;5096550;28;20229;-77
2022/11/15 09:31:07;;;;;;;0.00;0.00;;;;;;;;;;5096013;28;20675;-78
2022/11/15 09:33:36;;;;;;;0.00;0.00;;;;;;;;;;5096051;28;20217;-78
2022/11/15 09:36:05;;;;;;;0.00;0.00;;;;;;;;;;5095917;28;20241;-78
2022/11/15 09:38:35;;;;;;;0.00;0.00;;;;;;;;;;5096146;28;20238;-76
2022/11/15 09:41:37;;;;;;;0.00;0.00;;;;;;;;;;5095750;28;20198;-78
2022/11/15 09:44:15;;;;;;;0.00;0.00;;;;;;;;;;5033665;28;20230;-77
2022/11/15 09:47:06;;;;;;;0.00;0.00;;;;;;;;;;5033727;28;20693;-78
2022/11/15 09:49:35;;;;;;;0.00;0.00;;;;;;;;;;5076975;28;20213;-78
2022/11/15 09:52:04;;;;;;;0.00;0.00;;;;;;;;;;5096328;28;20304;-78
2022/11/15 09:54:35;;;;;;;0.00;0.00;;;;;;;;;;5095743;28;20655;-77
2022/11/15 09:57:24;;;;;;;0.00;0.00;;;;;;;;;;5096479;28;20607;-77
2022/11/15 09:59:57;;;;;;;0.00;0.00;;;;;;;;;;5095919;28;20306;-78
2022/11/15 10:02:48;;;;;;;0.00;0.00;;;;;;;;;;5096295;28;20380;-78
2022/11/15 10:05:18;;;;;;;0.00;0.00;;;;;;;;;;5096154;28;20243;-78
2022/11/15 10:07:50;;;;;;;0.00;0.00;;;;;;;;;;5095693;28;20569;-77
2022/11/15 10:10:24;;;;;;;0.00;0.00;;;;;;;;;;5095963;28;20229;-78
2022/11/15 10:12:53;;;;;;;0.00;0.00;;;;;;;;;;5095547;28;20317;-78
2022/11/15 10:15:23;;;;;;;0.00;0.00;;;;;;;;;;5095825;28;20244;-76
2022/11/15 10:18:06;;;;;;;0.00;0.00;;;;;;;;;;5095743;28;20225;-78
2022/11/15 10:20:39;;;;;;;0.00;0.00;;;;;;;;;;5095413;28;20247;-78
2022/11/15 10:23:12;;;;;;;0.00;0.00;;;;;;;;;;5096070;28;20271;-78
2022/11/15 10:25:43;;;;;;;0.00;0.00;;;;;;;;;;5096020;28;20263;-78
2022/11/15 10:28:14;;;;;;;0.00;0.00;;;;;;;;;;5097114;28;20208;-77
2022/11/15 10:30:44;;;;;;;0.00;0.00;;;;;;;;;;5094742;28;20210;-77
2022/11/15 10:33:16;;;;;;;0.00;0.00;;;;;;;;;;5095643;28;20221;-78
2022/11/15 10:35:44;;;;;;;0.00;0.00;;;;;;;;;;5095573;28;20194;-78
2022/11/15 10:38:13;;;;;;;0.00;0.00;;;;;;;;;;5094809;28;20212;-78
2022/11/15 10:40:44;;;;;;;0.00;0.00;;;;;;;;;;5095399;28;20236;-78
2022/11/15 10:43:15;;;;;;;0.00;0.00;;;;;;;;;;5094793;28;20213;-77
2022/11/15 10:45:44;;;;;;;0.00;0.00;;;;;;;;;;5095242;28;20186;-78
2022/11/15 10:48:24;;;;;;;0.00;0.00;;;;;;;;;;5095417;28;20292;-78
2022/11/15 10:50:53;;;;;;;0.00;0.00;;;;;;;;;;5095639;28;20584;-78
2022/11/15 10:53:24;;;;;;;0.00;0.00;;;;;;;;;;5094866;28;20290;-78
2022/11/15 10:55:55;;;;;;;0.00;0.00;;;;;;;;;;5094532;28;20190;-78
2022/11/15 10:58:30;;;;;;;0.00;0.00;;;;;;;;;;5094830;28;20232;-78
2022/11/15 11:01:09;;;;;;;0.00;0.00;;;;;;;;;;5094958;28;20239;-79
2022/11/15 11:03:39;;;;;;;0.00;0.00;;;;;;;;;;5094937;28;20686;-78
2022/11/15 11:06:09;;;;;;;0.00;0.00;;;;;;;;;;5095401;28;20190;-79
2022/11/15 11:08:38;;;;;;;0.00;0.00;;;;;;;;;;5095293;28;20208;-77
2022/11/15 11:11:08;;;;;;;0.00;0.00;;;;;;;;;;5095072;28;20292;-78
2022/11/15 11:13:38;;;;;;;0.00;0.00;;;;;;;;;;5094709;28;20269;-78
2022/11/15 11:16:17;;;;;;;0.00;0.00;;;;;;;;;;5094680;28;20267;-79
2022/11/15 11:18:49;;;;;;;0.00;0.00;;;;;;;;;;5094322;28;20198;-78
2022/11/15 11:21:20;;;;;;;0.00;0.00;;;;;;;;;;5094794;28;20228;-78
2022/11/15 11:24:01;;;;;;;0.00;0.00;;;;;;;;;;5094386;28;20184;-78
2022/11/15 11:26:38;;;;;;;0.00;0.00;;;;;;;;;;5094510;28;20194;-77
2022/11/15 11:29:13;;;;;;;0.00;0.00;;;;;;;;;;5094385;28;20604;-77
2022/11/15 11:31:47;;;;;;;0.00;0.00;;;;;;;;;;5093614;28;20189;-78
2022/11/15 11:34:19;;;;;;;0.00;0.00;;;;;;;;;;5094077;28;20214;-78
2022/11/15 11:36:52;;;;;;;0.00;0.00;;;;;;;;;;5094668;28;20225;-78
2022/11/15 11:39:25;;;;;;;0.00;0.00;;;;;;;;;;5095011;28;20639;-78
2022/11/15 11:41:58;;;;;;;0.00;0.00;;;;;;;;;;5095063;28;20320;-78
2022/11/15 11:44:30;;;;;;;0.00;0.00;;;;;;;;;;5098353;28;20586;-78
2022/11/15 11:47:01;;;;;;;0.00;0.00;;;;;;;;;;5097789;28;20691;-78
2022/11/15 11:49:32;;;;;;;0.00;0.00;;;;;;;;;;5098519;28;20259;-77
2022/11/15 11:52:04;;;;;;;0.00;0.00;;;;;;;;;;5098138;28;20253;-77
2022/11/15 11:54:35;;;;;;;0.00;0.00;;;;;;;;;;5097945;28;20245;-77
2022/11/15 11:57:07;;;;;;;0.00;0.00;;;;;;;;;;5097919;28;20228;-78
2022/11/15 11:59:39;;;;;;;0.00;0.00;;;;;;;;;;5098395;28;20281;-77
2022/11/15 12:02:12;;;;;;;0.00;0.00;;;;;;;;;;5098248;28;20258;-78
2022/11/15 12:04:43;;;;;;;0.00;0.00;;;;;;;;;;5098072;28;20586;-77
2022/11/15 12:07:15;;;;;;;0.00;0.00;;;;;;;;;;5097737;28;20681;-77
2022/11/15 12:09:46;;;;;;;0.00;0.00;;;;;;;;;;5097920;28;20626;-77
2022/11/15 12:12:19;;;;;;;0.00;0.00;;;;;;;;;;5098128;28;20298;-78
2022/11/15 12:14:49;;;;;;;0.00;0.00;;;;;;;;;;5097337;28;20770;-78
2022/11/15 12:17:19;;;;;;;0.00;0.00;;;;;;;;;;5097639;28;20225;-77
2022/11/15 12:19:48;;;;;;;0.00;0.00;;;;;;;;;;5098199;28;20233;-78
2022/11/15 12:22:20;;;;;;;0.00;0.00;;;;;;;;;;5097561;28;20224;-78
2022/11/15 12:24:52;;;;;;;0.00;0.00;;;;;;;;;;5097869;28;20196;-77
2022/11/15 12:27:27;;;;;;;0.00;0.00;;;;;;;;;;5097362;28;20277;-77
2022/11/15 12:29:58;;;;;;;0.00;0.00;;;;;;;;;;5097271;28;20622;-78
2022/11/15 12:32:28;;;;;;;0.00;0.00;;;;;;;;;;5097296;28;20268;-77
2022/11/15 12:34:57;;;;;;;0.00;0.00;;;;;;;;;;5097316;28;20641;-76
2022/11/15 12:37:58;;;;;;;0.00;0.00;;;;;;;;;;5097485;28;20723;-77
2022/11/15 12:40:31;;;;;;;0.00;0.00;;;;;;;;;;5097239;28;20192;-77
2022/11/15 12:43:03;;;;;;;0.00;0.00;;;;;;;;;;5096845;28;20264;-77
2022/11/15 12:45:32;;;;;;;0.00;0.00;;;;;;;;;;5097537;28;20228;-77
2022/11/15 12:48:19;;;;;;;0.00;0.00;;;;;;;;;;5097341;28;20575;-77
2022/11/15 12:50:58;;;;;;;0.00;0.00;;;;;;;;;;5097439;28;20703;-77
2022/11/15 12:53:30;;;;;;;0.00;0.00;;;;;;;;;;5096820;28;20225;-77
2022/11/15 12:56:10;;;;;;;0.00;0.00;;;;;;;;;;5096800;28;20237;-77
2022/11/15 12:58:45;;;;;;;0.00;0.00;;;;;;;;;;5097643;28;20225;-77
2022/11/15 13:01:29;;;;;;;0.00;0.00;;;;;;;;;;5096994;28;20197;-77
2022/11/15 13:04:09;;;;;;;0.00;0.00;;;;;;;;;;5096929;28;20185;-77
2022/11/15 13:06:43;;;;;;;0.00;0.00;;;;;;;;;;5096432;28;20225;-76
2022/11/15 13:09:29;;;;;;;0.00;0.00;;;;;;;;;;5097097;28;20200;-77
2022/11/15 13:11:58;;;;;;;0.00;0.00;;;;;;;;;;5095786;28;20581;-77
2022/11/15 13:14:42;;;;;;;0.00;0.00;;;;;;;;;;5096243;28;20221;-77
2022/11/15 13:17:40;;;;;;;0.00;0.00;;;;;;;;;;5093955;28;20719;-77
2022/11/15 13:20:24;;;;;;;0.00;0.00;;;;;;;;;;5096435;28;20224;-77
2022/11/15 13:22:59;;;;;;;0.00;0.00;;;;;;;;;;5094466;28;20253;-77
2022/11/15 13:25:47;;;;;;;0.00;0.00;;;;;;;;;;5096699;28;20201;-77
2022/11/15 13:28:21;;;;;;;0.00;0.00;;;;;;;;;;5096941;28;20248;-77
2022/11/15 13:30:52;;;;;;;0.00;0.00;;;;;;;;;;5096287;28;20189;-77
2022/11/15 13:33:22;;;;;;;0.00;0.00;;;;;;;;;;5096041;28;20217;-77
2022/11/15 13:35:52;;;;;;;0.00;0.00;;;;;;;;;;5096276;28;20237;-77
2022/11/15 13:38:27;;;;;;;0.00;0.00;;;;;;;;;;5095668;28;20229;-78
2022/11/15 13:40:56;;;;;;;0.00;0.00;;;;;;;;;;5095987;28;20186;-77
2022/11/15 13:43:29;;;;;;;0.00;0.00;;;;;;;;;;5094941;28;20639;-77
2022/11/15 13:46:14;;;;;;;0.00;0.00;;;;;;;;;;5096322;28;20192;-77
2022/11/15 13:48:43;;;;;;;0.00;0.00;;;;;;;;;;5095572;28;20273;-77
2022/11/15 13:51:17;;;;;;;0.00;0.00;;;;;;;;;;5095589;28;20208;-77
2022/11/15 13:53:49;;;;;;;0.00;0.00;;;;;;;;;;5095854;28;20221;-77
2022/11/15 13:56:18;;;;;;;0.00;0.00;;;;;;;;;;5095656;28;20244;-77
2022/11/15 13:58:47;;;;;;;0.00;0.00;;;;;;;;;;5095756;28;20201;-77
2022/11/15 14:01:17;;;;;;;0.00;0.00;;;;;;;;;;5095648;28;20198;-76
2022/11/15 14:03:49;;;;;;;0.00;0.00;;;;;;;;;;5095706;28;20230;-77
2022/11/15 14:06:19;;;;;;;0.00;0.00;;;;;;;;;;5095291;28;20221;-77
2022/11/15 14:09:03;;;;;;;0.00;0.00;;;;;;;;;;5095214;28;20186;-77
2022/11/15 14:11:33;;;;;;;0.00;0.00;;;;;;;;;;5083024;28;20197;-75
2022/11/15 14:14:12;;;;;;;0.00;0.00;;;;;;;;;;5094082;28;20631;-76
2022/11/15 14:16:42;;;;;;;0.00;0.00;;;;;;;;;;5093408;28;20528;-75
2022/11/15 14:19:12;;;;;;;0.00;0.00;;;;;;;;;;5093249;28;20254;-76
2022/11/15 14:21:55;;;;;;;0.00;0.00;;;;;;;;;;5093349;28;20558;-76
2022/11/15 14:24:24;;;;;;;0.00;0.00;;;;;;;;;;5092205;28;20258;-76
2022/11/15 14:26:54;;;;;;;0.00;0.00;;;;;;;;;;5093489;28;20210;-77
2022/11/15 14:29:24;;;;;;;0.00;0.00;;;;;;;;;;5093799;28;20183;-76
2022/11/15 14:31:52;;;;;;;0.00;0.00;;;;;;;;;;5092294;28;20221;-75
2022/11/15 14:34:22;;;;;;;0.00;0.00;;;;;;;;;;5092722;28;20289;-75
2022/11/15 14:36:50;;;;;;;0.00;0.00;;;;;;;;;;5093174;28;20209;-77
2022/11/15 14:39:19;;;;;;;0.00;0.00;;;;;;;;;;5093493;28;20543;-77
2022/11/15 14:41:47;;;;;;;0.00;0.00;;;;;;;;;;5092261;28;20260;-77
2022/11/15 14:44:19;;;;;;;0.00;0.00;;;;;;;;;;5093728;28;20669;-76
2022/11/15 14:46:48;;;;;;;0.00;0.00;;;;;;;;;;5092993;28;20217;-76
2022/11/15 14:49:17;;;;;;;0.00;0.00;;;;;;;;;;5093220;28;20745;-76
2022/11/15 14:51:45;;;;;;;0.00;0.00;;;;;;;;;;5092667;28;20229;-77
2022/11/15 14:54:14;;;;;;;0.00;0.00;;;;;;;;;;5093402;28;20201;-76
2022/11/15 14:56:42;;;;;;;0.00;0.00;;;;;;;;;;5092923;28;20260;-77
2022/11/15 14:59:11;;;;;;;0.00;0.00;;;;;;;;;;5093048;28;20263;-76
2022/11/15 15:01:41;;;;;;;0.00;0.00;;;;;;;;;;5093225;28;20238;-76
2022/11/15 15:04:10;;;;;;;0.00;0.00;;;;;;;;;;5093176;28;20625;-77
2022/11/15 15:06:38;;;;;;;0.00;0.00;;;;;;;;;;5093064;28;20667;-77
2022/11/15 15:09:07;;;;;;;0.00;0.00;;;;;;;;;;5092859;28;20233;-76
2022/11/15 15:11:35;;;;;;;0.00;0.00;;;;;;;;;;5093009;28;20575;-76
2022/11/15 15:14:04;;;;;;;0.00;0.00;;;;;;;;;;5092835;28;20237;-76
2022/11/15 15:16:33;;;;;;;0.00;0.00;;;;;;;;;;5092782;28;20697;-76
2022/11/15 15:19:02;;;;;;;0.00;0.00;;;;;;;;;;5096909;28;20720;-76